createdAt,value
2022-11-26T00:02:28.682Z,-14.08
2022-11-26T00:04:57.984Z,-14.19
2022-11-26T00:07:28.506Z,-14.31
2022-11-26T00:09:57.113Z,-14.38
2022-11-26T00:12:27.705Z,-14.40
2022-11-26T00:14:55.845Z,-14.42
2022-11-26T00:17:23.418Z,-14.44
2022-11-26T00:19:50.890Z,-14.38
2022-11-26T00:22:40.480Z,-14.39
2022-11-26T00:25:14.594Z,-14.19
2022-11-26T00:27:42.146Z,-14.30
2022-11-26T00:30:25.444Z,-14.24
2022-11-26T00:32:54.320Z,-14.25
2022-11-26T00:35:23.359Z,-14.32
2022-11-26T00:37:57.047Z,-14.28
2022-11-26T00:40:31.508Z,-14.33
2022-11-26T00:43:01.837Z,-14.40
2022-11-26T00:45:31.506Z,-14.31
2022-11-26T00:47:58.940Z,-14.25
2022-11-26T00:50:27.935Z,-14.26
2022-11-26T00:52:57.126Z,-14.39
2022-11-26T00:55:30.640Z,-14.46
2022-11-26T00:57:58.364Z,-14.36
2022-11-26T01:00:46.340Z,-14.48
2022-11-26T01:03:13.694Z,-14.70
2022-11-26T01:05:41.198Z,-14.97
2022-11-26T01:08:41.126Z,-15.06
2022-11-26T01:11:16.620Z,-15.10
2022-11-26T01:13:46.248Z,-15.15
2022-11-26T01:16:20.987Z,-15.34
2022-11-26T01:18:49.754Z,-15.30
2022-11-26T01:21:17.612Z,-15.29
2022-11-26T01:23:45.536Z,-15.49
2022-11-26T01:26:23.368Z,-15.49
2022-11-26T01:28:51.732Z,-15.52
2022-11-26T01:31:22.781Z,-15.53
2022-11-26T01:33:50.334Z,-15.51
2022-11-26T01:36:20.488Z,-15.57
2022-11-26T01:38:48.256Z,-15.76
2022-11-26T01:41:35.033Z,-15.71
2022-11-26T01:44:04.822Z,-15.75
2022-11-26T01:46:36.830Z,-15.74
2022-11-26T01:49:25.697Z,-15.76
2022-11-26T01:52:25.071Z,-15.89
2022-11-26T01:54:53.710Z,-16.12
2022-11-26T01:57:30.328Z,-16.19
2022-11-26T02:00:04.244Z,-16.41
2022-11-26T02:02:41.471Z,-16.60
2022-11-26T02:05:18.373Z,-16.66
2022-11-26T02:07:46.986Z,-16.80
2022-11-26T02:10:15.258Z,-16.84
2022-11-26T02:12:43.497Z,-16.86
2022-11-26T02:15:12.744Z,-16.84
2022-11-26T02:17:42.806Z,-16.63
2022-11-26T02:20:16.100Z,-16.64
2022-11-26T02:22:49.728Z,-16.64
2022-11-26T02:25:28.005Z,-16.72
2022-11-26T02:28:07.130Z,-16.70
2022-11-26T02:30:43.273Z,-16.52
2022-11-26T02:33:36.776Z,-16.38
2022-11-26T02:36:13.479Z,-16.30
2022-11-26T02:38:41.537Z,-16.27
2022-11-26T02:41:09.556Z,-16.37
2022-11-26T02:43:38.710Z,-16.35
2022-11-26T02:46:12.129Z,-16.33
2022-11-26T02:48:42.382Z,-16.35
2022-11-26T02:51:21.136Z,-16.57
2022-11-26T02:53:51.156Z,-16.66
2022-11-26T02:56:27.837Z,-16.68
2022-11-26T02:58:56.503Z,-16.81
2022-11-26T03:01:32.132Z,-16.86
2022-11-26T03:04:06.350Z,-16.97
2022-11-26T03:06:35.189Z,-17.09
2022-11-26T03:09:02.884Z,-17.31
2022-11-26T03:11:30.596Z,-17.51
2022-11-26T03:13:58.116Z,-17.49
2022-11-26T03:16:25.535Z,-17.54
2022-11-26T03:18:52.958Z,-17.32
2022-11-26T03:21:20.329Z,-17.23
2022-11-26T03:23:47.666Z,-17.33
2022-11-26T03:26:15.105Z,-17.50
2022-11-26T03:28:42.491Z,-17.38
2022-11-26T03:31:10.003Z,-17.34
2022-11-26T03:33:37.345Z,-17.39
2022-11-26T03:36:04.930Z,-17.47
2022-11-26T03:38:32.277Z,-17.51
2022-11-26T03:41:01.859Z,-17.54
2022-11-26T03:43:29.320Z,-17.59
2022-11-26T03:45:57.824Z,-17.55
2022-11-26T03:48:25.227Z,-17.85
2022-11-26T03:50:52.624Z,-17.93
2022-11-26T03:53:20.061Z,-18.08
2022-11-26T03:55:47.965Z,-18.22
2022-11-26T03:58:15.442Z,-18.22
2022-11-26T04:00:42.879Z,-18.38
2022-11-26T04:03:10.315Z,-18.36
2022-11-26T04:05:37.744Z,-18.30
2022-11-26T04:08:05.146Z,-18.48
2022-11-26T04:10:32.608Z,-18.61
2022-11-26T04:13:00.004Z,-18.65
2022-11-26T04:15:27.359Z,-18.72
2022-11-26T04:17:54.799Z,-18.62
2022-11-26T04:20:22.249Z,-18.54
2022-11-26T04:22:49.798Z,-18.53
2022-11-26T04:25:17.210Z,-18.53
2022-11-26T04:27:44.526Z,-18.52
2022-11-26T04:30:12.361Z,-18.66
2022-11-26T04:32:40.222Z,-18.70
2022-11-26T04:35:08.947Z,-18.72
2022-11-26T04:37:36.859Z,-18.74
2022-11-26T04:40:04.526Z,-18.63
2022-11-26T04:42:32.001Z,-18.75
2022-11-26T04:44:59.598Z,-18.50
2022-11-26T04:47:27.072Z,-18.53
2022-11-26T04:49:54.459Z,-18.53
2022-11-26T04:52:22.048Z,-18.42
2022-11-26T04:54:49.381Z,-18.38
2022-11-26T04:57:16.915Z,-18.32
2022-11-26T04:59:44.403Z,-18.43
2022-11-26T05:02:11.662Z,-18.45
2022-11-26T05:04:39.195Z,-18.40
2022-11-26T05:07:06.730Z,-18.26
2022-11-26T05:09:34.233Z,-18.23
2022-11-26T05:12:01.587Z,-18.03
2022-11-26T05:14:28.967Z,-17.88
2022-11-26T05:16:56.323Z,-17.64
2022-11-26T05:19:23.766Z,-17.36
2022-11-26T05:21:51.146Z,-17.20
2022-11-26T05:24:18.505Z,-16.88
2022-11-26T05:26:45.906Z,-16.61
2022-11-26T05:29:13.187Z,-16.36
2022-11-26T05:31:40.809Z,-16.15
2022-11-26T05:34:08.384Z,-15.87
2022-11-26T05:36:35.800Z,-15.49
2022-11-26T05:39:03.841Z,-15.14
2022-11-26T05:41:31.273Z,-14.87
2022-11-26T05:43:58.641Z,-14.50
2022-11-26T05:46:27.515Z,-14.31
2022-11-26T05:48:54.820Z,-13.89
2022-11-26T05:51:22.671Z,-13.50
2022-11-26T05:53:50.057Z,-13.06
2022-11-26T05:56:17.420Z,-12.52
2022-11-26T05:58:44.968Z,-12.09
2022-11-26T06:01:12.281Z,-11.68
2022-11-26T06:03:40.819Z,-11.15
2022-11-26T06:06:09.605Z,-10.79
2022-11-26T06:08:37.457Z,-10.54
2022-11-26T06:11:04.971Z,-10.11
2022-11-26T06:13:32.377Z,-9.69
2022-11-26T06:15:59.965Z,-9.34
2022-11-26T06:18:27.427Z,-8.73
2022-11-26T06:20:54.782Z,-8.44
2022-11-26T06:23:22.229Z,-8.20
2022-11-26T06:25:50.154Z,-8.03
2022-11-26T06:28:17.669Z,-7.75
2022-11-26T06:30:46.320Z,-7.58
2022-11-26T06:33:14.236Z,-7.20
2022-11-26T06:35:41.833Z,-6.98
2022-11-26T06:38:09.754Z,-6.85
2022-11-26T06:40:37.080Z,-6.70
2022-11-26T06:43:04.473Z,-6.59
2022-11-26T06:45:31.945Z,-6.49
2022-11-26T06:47:59.320Z,-6.42
2022-11-26T06:50:26.801Z,-6.35
2022-11-26T06:52:54.289Z,-6.37
2022-11-26T06:55:22.063Z,-6.30
2022-11-26T06:57:51.490Z,-6.26
2022-11-26T07:00:19.305Z,-6.38
2022-11-26T07:02:46.774Z,-6.56
2022-11-26T07:05:14.528Z,-6.77
2022-11-26T07:07:42.292Z,-7.02
2022-11-26T07:10:10.029Z,-7.28
2022-11-26T07:12:37.373Z,-7.63
2022-11-26T07:15:05.784Z,-7.69
2022-11-26T07:17:33.149Z,-7.88
2022-11-26T07:20:00.469Z,-8.04
2022-11-26T07:22:27.962Z,-8.30
2022-11-26T07:24:55.300Z,-8.61
2022-11-26T07:27:22.690Z,-8.71
2022-11-26T07:29:52.192Z,-8.95
2022-11-26T07:32:19.609Z,-9.16
2022-11-26T07:34:46.986Z,-9.50
2022-11-26T07:37:14.477Z,-9.81
2022-11-26T07:39:41.802Z,-10.16
2022-11-26T07:42:09.255Z,-10.44
2022-11-26T07:44:37.388Z,-10.58
2022-11-26T07:47:04.963Z,-10.73
2022-11-26T07:49:32.379Z,-10.71
2022-11-26T07:51:59.738Z,-10.84
2022-11-26T07:54:27.078Z,-10.92
2022-11-26T07:56:54.517Z,-11.02
2022-11-26T07:59:22.839Z,-11.16
2022-11-26T08:01:50.312Z,-11.16
2022-11-26T08:04:17.741Z,-11.20
2022-11-26T08:06:45.155Z,-11.02
2022-11-26T08:09:12.577Z,-11.43
2022-11-26T08:11:40.012Z,-11.85
2022-11-26T08:14:11.315Z,-11.75
2022-11-26T08:16:39.410Z,-11.86
2022-11-26T08:19:11.240Z,-12.14
2022-11-26T08:21:39.814Z,-12.38
2022-11-26T08:24:08.863Z,-12.27
2022-11-26T08:26:39.877Z,-12.47
2022-11-26T08:29:11.301Z,-12.58
2022-11-26T08:31:45.590Z,-12.68
2022-11-26T08:34:16.142Z,-12.96
2022-11-26T08:36:44.865Z,-12.94
2022-11-26T08:39:17.749Z,-13.02
2022-11-26T08:41:51.650Z,-13.06
2022-11-26T08:44:20.351Z,-13.36
2022-11-26T08:46:48.251Z,-13.45
2022-11-26T08:49:17.252Z,-13.66
2022-11-26T08:51:45.043Z,-13.78
2022-11-26T08:54:12.526Z,-14.01
2022-11-26T08:56:41.429Z,-14.36
2022-11-26T08:59:08.786Z,-14.51
2022-11-26T09:01:36.304Z,-14.58
2022-11-26T09:04:04.993Z,-14.68
2022-11-26T09:06:36.870Z,-14.82
2022-11-26T09:09:15.634Z,-14.89
2022-11-26T09:11:50.894Z,-14.75
2022-11-26T09:14:21.543Z,-14.65
2022-11-26T09:16:49.166Z,-14.68
2022-11-26T09:19:17.559Z,-14.76
2022-11-26T09:21:45.712Z,-14.75
2022-11-26T09:24:13.488Z,-14.66
2022-11-26T09:26:41.344Z,-14.73
2022-11-26T09:29:10.369Z,-14.70
2022-11-26T09:31:49.801Z,-14.72
2022-11-26T09:34:25.150Z,-14.82
2022-11-26T09:36:52.646Z,-14.88
2022-11-26T09:39:20.123Z,-15.04
2022-11-26T09:42:09.021Z,-14.92
2022-11-26T09:45:05.682Z,-14.93
2022-11-26T09:47:45.865Z,-14.89
2022-11-26T09:50:16.041Z,-14.98
2022-11-26T09:53:08.303Z,-15.06
2022-11-26T09:55:39.063Z,-15.29
2022-11-26T09:58:16.632Z,-15.21
2022-11-26T10:00:47.140Z,-15.40
2022-11-26T10:03:18.923Z,-15.30
2022-11-26T10:05:51.086Z,-15.32
2022-11-26T10:08:31.651Z,-15.21
2022-11-26T10:11:11.095Z,-15.18
2022-11-26T10:13:48.475Z,-15.18
2022-11-26T10:16:19.175Z,-15.09
2022-11-26T10:19:20.937Z,-15.10
2022-11-26T10:22:03.820Z,-15.09
2022-11-26T10:24:37.109Z,-15.13
2022-11-26T10:27:18.584Z,-15.11
2022-11-26T10:30:28.553Z,-15.18
2022-11-26T10:32:58.778Z,-15.25
2022-11-26T10:35:30.121Z,-15.38
2022-11-26T10:37:58.553Z,-15.40
2022-11-26T10:40:33.272Z,-15.39
2022-11-26T10:43:06.568Z,-15.46
2022-11-26T10:45:41.067Z,-15.60
2022-11-26T10:48:29.477Z,-15.66
2022-11-26T10:51:00.149Z,-15.66
2022-11-26T10:53:31.323Z,-15.78
2022-11-26T10:56:06.200Z,-15.79
2022-11-26T10:58:41.328Z,-16.12
2022-11-26T11:01:11.144Z,-16.33
2022-11-26T11:06:42.859Z,-16.38
2022-11-26T11:09:29.183Z,-16.42
2022-11-26T11:12:12.022Z,-16.53
2022-11-26T11:14:43.455Z,-16.56
2022-11-26T11:17:41.279Z,-16.55
2022-11-26T11:20:17.937Z,-16.56
2022-11-26T11:22:47.384Z,-16.67
2022-11-26T11:25:28.020Z,-16.50
2022-11-26T11:28:03.244Z,-16.62
2022-11-26T11:30:37.935Z,-16.80
2022-11-26T11:33:26.497Z,-16.75
2022-11-26T11:36:01.572Z,-16.93
2022-11-26T11:38:32.140Z,-16.78
2022-11-26T11:41:05.388Z,-16.79
2022-11-26T11:43:37.390Z,-16.83
2022-11-26T11:46:23.009Z,-16.68
2022-11-26T11:49:11.687Z,-16.73
2022-11-26T11:52:09.027Z,-16.77
2022-11-26T11:55:15.464Z,-16.75
2022-11-26T11:57:42.947Z,-16.77
2022-11-26T12:00:30.693Z,-16.82
2022-11-26T12:03:25.921Z,-16.74
2022-11-26T12:06:17.976Z,-16.75
2022-11-26T12:08:52.753Z,-17.00
2022-11-26T12:11:20.471Z,-17.01
2022-11-26T12:13:54.064Z,-17.17
2022-11-26T12:16:26.390Z,-17.09
2022-11-26T12:19:12.428Z,-17.24
2022-11-26T12:21:55.550Z,-17.19
2022-11-26T12:25:04.315Z,-17.24
2022-11-26T12:27:58.432Z,-17.31
2022-11-26T12:30:37.309Z,-17.32
2022-11-26T12:33:16.434Z,-17.42
2022-11-26T12:35:50.979Z,-17.35
2022-11-26T12:38:38.923Z,-17.41
2022-11-26T12:41:11.574Z,-17.48
2022-11-26T12:44:01.862Z,-17.38
2022-11-26T12:46:33.018Z,-17.57
2022-11-26T12:49:48.120Z,-17.49
2022-11-26T12:52:24.604Z,-17.58
2022-11-26T12:55:24.503Z,-17.72
2022-11-26T12:58:01.577Z,-17.68
2022-11-26T13:00:36.425Z,-17.68
2022-11-26T13:03:06.970Z,-17.68
2022-11-26T13:06:22.229Z,-17.74
2022-11-26T13:08:56.183Z,-17.94
2022-11-26T13:11:45.202Z,-17.80
2022-11-26T13:14:15.570Z,-17.85
2022-11-26T13:16:56.345Z,-17.87
2022-11-26T13:19:29.849Z,-17.89
2022-11-26T13:22:15.091Z,-18.00
2022-11-26T13:25:16.122Z,-17.99
2022-11-26T13:28:00.954Z,-18.07
2022-11-26T13:30:38.589Z,-17.99
2022-11-26T13:33:31.185Z,-18.02
2022-11-26T13:36:17.088Z,-17.96
2022-11-26T13:39:22.035Z,-18.01
2022-11-26T13:42:07.891Z,-18.02
2022-11-26T13:44:51.575Z,-17.96
2022-11-26T13:47:41.986Z,-17.94
2022-11-26T13:50:43.311Z,-17.91
2022-11-26T13:53:28.608Z,-17.93
2022-11-26T13:56:04.305Z,-17.91
2022-11-26T13:58:37.786Z,-17.91
2022-11-26T14:01:23.986Z,-17.81
2022-11-26T14:03:51.767Z,-17.81
2022-11-26T14:06:20.455Z,-17.76
2022-11-26T14:08:50.924Z,-17.82
2022-11-26T14:11:46.021Z,-17.89
2022-11-26T14:14:25.710Z,-17.95
2022-11-26T14:17:02.508Z,-18.02
2022-11-26T14:19:45.109Z,-18.01
2022-11-26T14:22:21.870Z,-18.07
2022-11-26T14:24:49.635Z,-18.05
2022-11-26T14:27:18.728Z,-18.12
2022-11-26T14:29:48.267Z,-18.21
2022-11-26T14:32:18.321Z,-18.27
2022-11-26T14:34:54.759Z,-18.28
2022-11-26T14:37:31.287Z,-18.24
2022-11-26T14:40:05.626Z,-18.40
2022-11-26T14:42:33.404Z,-18.37
2022-11-26T14:45:15.605Z,-18.42
2022-11-26T14:47:49.600Z,-18.36
2022-11-26T14:50:21.266Z,-18.37
2022-11-26T14:52:55.765Z,-18.46
2022-11-26T14:55:28.384Z,-18.26
2022-11-26T14:58:04.854Z,-18.50
2022-11-26T15:00:35.858Z,-18.41
2022-11-26T15:03:04.470Z,-18.43
2022-11-26T15:05:42.047Z,-18.47
2022-11-26T15:08:20.552Z,-18.60
2022-11-26T15:10:48.107Z,-18.43
2022-11-26T15:13:41.123Z,-18.53
2022-11-26T15:16:27.844Z,-18.53
2022-11-26T15:18:57.600Z,-18.63
2022-11-26T15:21:27.534Z,-18.58
2022-11-26T15:23:59.443Z,-18.50
2022-11-26T15:26:34.632Z,-18.48
2022-11-26T15:29:02.889Z,-18.57
2022-11-26T15:31:43.049Z,-18.62
2022-11-26T15:34:13.490Z,-18.51
2022-11-26T15:36:41.549Z,-18.52
2022-11-26T15:39:24.963Z,-18.54
2022-11-26T15:41:54.007Z,-18.57
2022-11-26T15:44:25.586Z,-18.71
2022-11-26T15:46:55.928Z,-18.71
2022-11-26T15:49:32.514Z,-18.64
2022-11-26T15:52:04.162Z,-18.69
2022-11-26T15:54:49.569Z,-18.69
2022-11-26T15:57:33.206Z,-18.72
2022-11-26T16:00:42.110Z,-18.67
2022-11-26T16:03:42.306Z,-18.67
2022-11-26T16:06:33.407Z,-18.64
2022-11-26T16:09:12.547Z,-18.55
2022-11-26T16:11:57.228Z,-18.60
2022-11-26T16:14:37.413Z,-18.54
2022-11-26T16:17:08.686Z,-18.56
2022-11-26T16:19:37.981Z,-18.62
2022-11-26T16:22:14.619Z,-18.54
2022-11-26T16:24:44.130Z,-18.62
2022-11-26T16:27:18.794Z,-18.76
2022-11-26T16:29:47.112Z,-18.75
2022-11-26T16:32:17.323Z,-18.82
2022-11-26T16:34:45.728Z,-18.67
2022-11-26T16:37:32.145Z,-18.63
2022-11-26T16:40:21.895Z,-18.79
2022-11-26T16:42:50.213Z,-18.70
2022-11-26T16:45:18.538Z,-18.66
2022-11-26T16:47:54.849Z,-18.58
2022-11-26T16:50:26.127Z,-18.67
2022-11-26T16:52:55.114Z,-18.77
2022-11-26T16:55:25.747Z,-18.66
2022-11-26T16:57:59.954Z,-18.65
2022-11-26T17:00:28.656Z,-18.72
2022-11-26T17:02:56.363Z,-18.79
2022-11-26T17:05:25.189Z,-18.81
2022-11-26T17:07:56.063Z,-18.82
2022-11-26T17:10:29.127Z,-18.83
2022-11-26T17:12:57.404Z,-18.82
2022-11-26T17:15:25.040Z,-18.82
2022-11-26T17:17:54.751Z,-18.86
2022-11-26T17:20:27.606Z,-18.95
2022-11-26T17:22:55.273Z,-19.01
2022-11-26T17:25:22.946Z,-18.93
2022-11-26T17:27:53.839Z,-19.01
2022-11-26T17:30:24.545Z,-19.10
2022-11-26T17:32:52.234Z,-18.98
2022-11-26T17:35:21.260Z,-19.33
2022-11-26T17:37:48.805Z,-18.96
2022-11-26T17:40:23.752Z,-18.85
2022-11-26T17:42:51.513Z,-18.83
2022-11-26T17:45:20.025Z,-18.83
2022-11-26T17:47:47.920Z,-18.82
2022-11-26T17:50:25.708Z,-18.89
2022-11-26T17:52:55.128Z,-18.73
2022-11-26T17:55:24.492Z,-18.68
2022-11-26T17:57:52.577Z,-18.57
2022-11-26T18:00:24.050Z,-18.52
2022-11-26T18:02:52.779Z,-18.50
2022-11-26T18:05:20.845Z,-18.46
2022-11-26T18:07:50.210Z,-18.48
2022-11-26T18:10:20.076Z,-18.51
2022-11-26T18:12:48.456Z,-18.45
2022-11-26T18:15:24.105Z,-18.40
2022-11-26T18:17:54.053Z,-18.44
2022-11-26T18:20:27.381Z,-18.57
2022-11-26T18:22:58.013Z,-18.42
2022-11-26T18:25:26.055Z,-18.56
2022-11-26T18:27:54.177Z,-18.56
2022-11-26T18:30:21.912Z,-18.59
2022-11-26T18:32:49.496Z,-18.61
2022-11-26T18:35:17.609Z,-18.61
2022-11-26T18:37:45.099Z,-18.68
2022-11-26T18:40:17.136Z,-18.67
2022-11-26T18:42:45.215Z,-18.81
2022-11-26T18:45:16.237Z,-18.81
2022-11-26T18:47:44.185Z,-18.82
2022-11-26T18:50:14.117Z,-18.80
2022-11-26T18:52:42.377Z,-18.88
2022-11-26T18:55:10.115Z,-18.93
2022-11-26T18:57:37.694Z,-18.89
2022-11-26T19:00:06.388Z,-18.84
2022-11-26T19:02:38.650Z,-18.91
2022-11-26T19:05:06.641Z,-18.89
2022-11-26T19:07:34.340Z,-18.77
2022-11-26T19:10:22.034Z,-18.78
2022-11-26T19:12:49.388Z,-18.80
2022-11-26T19:15:17.152Z,-18.86
2022-11-26T19:17:44.836Z,-18.78
2022-11-26T19:20:14.427Z,-18.77
2022-11-26T19:22:43.107Z,-18.78
2022-11-26T19:25:10.888Z,-18.63
2022-11-26T19:27:38.717Z,-18.53
2022-11-26T19:30:08.175Z,-18.56
2022-11-26T19:32:37.615Z,-18.56
2022-11-26T19:35:06.248Z,-18.55
2022-11-26T19:37:34.036Z,-18.60
2022-11-26T19:40:01.923Z,-18.57
2022-11-26T19:42:30.954Z,-18.64
2022-11-26T19:44:58.397Z,-18.51
2022-11-26T19:47:33.333Z,-18.49
2022-11-26T19:50:01.954Z,-18.46
2022-11-26T19:52:29.992Z,-18.34
2022-11-26T19:54:57.971Z,-18.28
2022-11-26T19:57:25.429Z,-18.19
2022-11-26T19:59:53.144Z,-18.13
2022-11-26T20:02:20.801Z,-18.21
2022-11-26T20:04:48.324Z,-18.20
2022-11-26T20:07:32.821Z,-18.10
2022-11-26T20:10:00.299Z,-18.09
2022-11-26T20:12:27.855Z,-18.06
2022-11-26T20:14:55.387Z,-18.09
2022-11-26T20:17:22.877Z,-18.04
2022-11-26T20:19:50.491Z,-17.97
2022-11-26T20:22:18.270Z,-17.91
2022-11-26T20:24:45.902Z,-17.76
2022-11-26T20:27:13.247Z,-17.62
2022-11-26T20:29:40.862Z,-17.48
2022-11-26T20:32:08.866Z,-17.38
2022-11-26T20:34:36.206Z,-17.26
2022-11-26T20:37:04.132Z,-17.10
2022-11-26T20:39:31.581Z,-16.98
2022-11-26T20:41:59.109Z,-16.84
2022-11-26T20:44:28.706Z,-16.79
2022-11-26T20:46:57.878Z,-16.65
2022-11-26T20:49:28.446Z,-16.57
2022-11-26T20:51:58.186Z,-16.56
2022-11-26T20:54:25.654Z,-16.55
2022-11-26T20:56:53.086Z,-16.53
2022-11-26T20:59:20.518Z,-16.47
2022-11-26T21:01:47.896Z,-16.41
2022-11-26T21:04:15.487Z,-16.44
2022-11-26T21:06:44.112Z,-16.37
2022-11-26T21:09:13.821Z,-16.43
2022-11-26T21:11:41.711Z,-16.47
2022-11-26T21:14:14.587Z,-16.50
2022-11-26T21:16:42.821Z,-16.39
2022-11-26T21:19:13.482Z,-16.35
2022-11-26T21:21:40.998Z,-16.46
2022-11-26T21:24:09.188Z,-16.46
2022-11-26T21:26:36.633Z,-16.47
2022-11-26T21:29:04.126Z,-16.53
2022-11-26T21:31:32.697Z,-16.60
2022-11-26T21:34:02.834Z,-16.70
2022-11-26T21:36:31.878Z,-16.79
2022-11-26T21:38:59.663Z,-16.76
2022-11-26T21:41:27.670Z,-16.74
2022-11-26T21:43:55.266Z,-16.73
2022-11-26T21:46:25.764Z,-16.71
2022-11-26T21:48:54.207Z,-16.73
2022-11-26T21:51:22.449Z,-16.72
2022-11-26T21:53:50.443Z,-16.82
2022-11-26T21:56:20.668Z,-16.78
2022-11-26T21:58:49.212Z,-16.79
2022-11-26T22:01:27.130Z,-16.78
2022-11-26T22:03:56.654Z,-16.76
2022-11-26T22:06:24.523Z,-16.65
2022-11-26T22:08:53.231Z,-16.67
2022-11-26T22:11:30.232Z,-16.72
2022-11-26T22:13:57.980Z,-16.70
2022-11-26T22:16:30.167Z,-16.80
2022-11-26T22:18:59.196Z,-16.87
2022-11-26T22:21:30.262Z,-16.91
2022-11-26T22:23:59.299Z,-16.98
2022-11-26T22:26:27.574Z,-17.01
2022-11-26T22:28:58.210Z,-17.04
2022-11-26T22:31:28.908Z,-17.10
2022-11-26T22:34:17.651Z,-17.13
2022-11-26T22:36:46.001Z,-17.12
2022-11-26T22:39:15.836Z,-17.13
2022-11-26T22:41:44.360Z,-17.09
2022-11-26T22:44:12.995Z,-17.10
2022-11-26T22:46:40.508Z,-17.12
2022-11-26T22:49:10.901Z,-17.05
2022-11-26T22:51:38.240Z,-17.04
2022-11-26T22:54:07.682Z,-17.13
2022-11-26T22:56:38.018Z,-17.04
2022-11-26T22:59:07.112Z,-16.98
2022-11-26T23:01:36.317Z,-16.93
2022-11-26T23:04:07.247Z,-16.93
2022-11-26T23:06:36.099Z,-16.96
2022-11-26T23:09:06.355Z,-16.90
2022-11-26T23:11:41.531Z,-16.92
2022-11-26T23:14:09.781Z,-16.95
2022-11-26T23:16:39.914Z,-16.87
2022-11-26T23:19:07.953Z,-16.83
2022-11-26T23:21:40.282Z,-16.80
2022-11-26T23:24:08.228Z,-16.81
2022-11-26T23:26:38.287Z,-16.84
2022-11-26T23:29:07.105Z,-16.74
2022-11-26T23:31:38.790Z,-16.67
2022-11-26T23:34:07.441Z,-16.63
2022-11-26T23:36:35.058Z,-16.58
2022-11-26T23:39:05.407Z,-16.54
2022-11-26T23:41:32.874Z,-16.63
2022-11-26T23:44:00.515Z,-16.63
2022-11-26T23:46:32.723Z,-16.65
2022-11-26T23:49:00.231Z,-16.70
2022-11-26T23:51:31.198Z,-16.71
2022-11-26T23:53:58.633Z,-16.76
2022-11-26T23:56:28.862Z,-16.75
2022-11-26T23:58:58.638Z,-16.69
